createdAt,value
2022-08-22T00:00:01.991Z,0
2022-08-22T00:00:22.047Z,0
2022-08-22T00:00:42.804Z,0
2022-08-22T00:01:02.184Z,0
2022-08-22T00:01:22.244Z,0
2022-08-22T00:01:42.291Z,0
2022-08-22T00:02:02.393Z,0
2022-08-22T00:02:22.461Z,0
2022-08-22T00:02:41.798Z,17
2022-08-22T00:02:42.866Z,0
2022-08-22T00:02:43.366Z,0
2022-08-22T00:02:43.622Z,0
2022-08-22T00:02:44.478Z,0
2022-08-22T00:02:44.824Z,46
2022-08-22T00:02:49.791Z,0
2022-08-22T00:02:53.911Z,0
2022-08-22T00:02:54.059Z,0
2022-08-22T00:02:54.353Z,0
2022-08-22T00:02:54.637Z,0
2022-08-22T00:02:55.069Z,0
2022-08-22T00:02:55.811Z,0
2022-08-22T00:02:56.966Z,7
2022-08-22T00:02:57.558Z,0
2022-08-22T00:02:58.875Z,0
2022-08-22T00:02:59.810Z,0
2022-08-22T00:03:00.351Z,0
2022-08-22T00:03:02.138Z,0
2022-08-22T00:03:03.229Z,0
2022-08-22T00:03:09.682Z,0
2022-08-22T00:03:10.012Z,0
2022-08-22T00:03:10.808Z,0
2022-08-22T00:03:11.472Z,0
2022-08-22T00:03:16.249Z,0
2022-08-22T00:03:22.670Z,0
2022-08-22T00:03:42.638Z,0
2022-08-22T00:04:02.701Z,0
2022-08-22T00:04:22.767Z,0
2022-08-22T00:04:42.830Z,0
2022-08-22T00:05:02.893Z,0
2022-08-22T00:05:22.951Z,0
2022-08-22T00:05:43.018Z,0
2022-08-22T00:06:03.075Z,0
2022-08-22T00:06:23.120Z,0
2022-08-22T00:06:43.189Z,0
2022-08-22T00:07:03.249Z,0
2022-08-22T00:07:23.296Z,0
2022-08-22T00:07:43.359Z,0
2022-08-22T00:08:03.427Z,0
2022-08-22T00:08:23.431Z,0
2022-08-22T00:08:43.505Z,0
2022-08-22T00:09:03.596Z,0
2022-08-22T00:09:23.640Z,0
2022-08-22T00:09:43.713Z,0
2022-08-22T00:10:03.791Z,0
2022-08-22T00:10:25.658Z,0
2022-08-22T00:10:43.906Z,0
2022-08-22T00:11:03.961Z,0
2022-08-22T00:11:24.035Z,0
2022-08-22T00:11:44.090Z,0
2022-08-22T00:12:04.129Z,0
2022-08-22T00:12:24.203Z,0
2022-08-22T00:12:44.264Z,0
2022-08-22T00:13:04.318Z,0
2022-08-22T00:13:24.368Z,0
2022-08-22T00:13:44.433Z,0
2022-08-22T00:14:04.522Z,0
2022-08-22T00:14:24.552Z,0
2022-08-22T00:14:44.621Z,0
2022-08-22T00:15:04.686Z,0
2022-08-22T00:15:42.301Z,0
2022-08-22T00:15:44.783Z,0
2022-08-22T00:16:04.851Z,0
2022-08-22T00:16:24.911Z,0
2022-08-22T00:16:44.970Z,0
2022-08-22T00:17:05.028Z,0
2022-08-22T00:17:25.087Z,0
2022-08-22T00:17:45.154Z,0
2022-08-22T00:18:05.722Z,0
2022-08-22T00:18:25.262Z,0
2022-08-22T00:18:45.317Z,0
2022-08-22T00:19:05.387Z,0
2022-08-22T00:19:25.450Z,0
2022-08-22T00:19:45.513Z,0
2022-08-22T00:20:05.564Z,0
2022-08-22T00:20:28.250Z,0
2022-08-22T00:20:45.652Z,0
2022-08-22T00:21:05.723Z,0
2022-08-22T00:21:25.797Z,0
2022-08-22T00:21:45.866Z,0
2022-08-22T00:22:05.890Z,0
2022-08-22T00:22:25.949Z,0
2022-08-22T00:22:46.017Z,0
2022-08-22T00:23:06.098Z,0
2022-08-22T00:23:26.170Z,0
2022-08-22T00:23:46.221Z,0
2022-08-22T00:24:06.270Z,0
2022-08-22T00:24:26.346Z,0
2022-08-22T00:24:46.389Z,0
2022-08-22T00:25:06.457Z,0
2022-08-22T00:25:26.523Z,0
2022-08-22T00:25:46.576Z,0
2022-08-22T00:26:06.644Z,0
2022-08-22T00:26:26.671Z,0
2022-08-22T00:26:46.761Z,0
2022-08-22T00:27:06.773Z,0
2022-08-22T00:27:26.848Z,0
2022-08-22T00:27:46.903Z,0
2022-08-22T00:28:07.001Z,0
2022-08-22T00:28:27.047Z,0
2022-08-22T00:28:47.100Z,0
2022-08-22T00:29:07.177Z,0
2022-08-22T00:29:27.229Z,0
2022-08-22T00:29:47.304Z,0
2022-08-22T00:30:07.537Z,0
2022-08-22T00:30:27.409Z,0
2022-08-22T00:30:47.468Z,0
2022-08-22T00:31:07.528Z,0
2022-08-22T00:31:27.585Z,0
2022-08-22T00:31:47.641Z,0
2022-08-22T00:32:07.708Z,0
2022-08-22T00:32:27.754Z,0
2022-08-22T00:32:47.814Z,0
2022-08-22T00:33:07.855Z,0
2022-08-22T00:33:27.938Z,0
2022-08-22T00:33:47.994Z,0
2022-08-22T00:34:08.050Z,0
2022-08-22T00:34:28.127Z,0
2022-08-22T00:34:48.204Z,0
2022-08-22T00:35:08.267Z,0
2022-08-22T00:35:28.311Z,0
2022-08-22T00:35:48.374Z,0
2022-08-22T00:36:08.418Z,0
2022-08-22T00:36:28.468Z,0
2022-08-22T00:36:48.511Z,0
2022-08-22T00:37:08.589Z,0
2022-08-22T00:37:28.670Z,0
2022-08-22T00:37:48.719Z,0
2022-08-22T00:38:08.804Z,0
2022-08-22T00:38:28.849Z,0
2022-08-22T00:38:48.900Z,0
2022-08-22T00:39:08.950Z,0
2022-08-22T00:39:29.024Z,0
2022-08-22T00:39:49.093Z,0
2022-08-22T00:40:09.183Z,0
2022-08-22T00:40:29.178Z,0
2022-08-22T00:40:49.259Z,0
2022-08-22T00:41:09.312Z,0
2022-08-22T00:41:29.383Z,0
2022-08-22T00:41:49.429Z,0
2022-08-22T00:42:09.484Z,0
2022-08-22T00:42:32.140Z,0
2022-08-22T00:42:49.583Z,0
2022-08-22T00:43:09.650Z,0
2022-08-22T00:43:29.727Z,0
2022-08-22T00:43:49.787Z,0
2022-08-22T00:44:09.841Z,0
2022-08-22T00:44:29.868Z,0
2022-08-22T00:44:49.960Z,0
2022-08-22T00:45:10.036Z,0
2022-08-22T00:45:30.099Z,0
2022-08-22T00:45:50.150Z,0
2022-08-22T00:46:10.206Z,0
2022-08-22T00:46:30.245Z,0
2022-08-22T00:46:50.315Z,0
2022-08-22T00:47:10.376Z,0
2022-08-22T00:47:30.449Z,0
2022-08-22T00:47:50.521Z,0
2022-08-22T00:48:10.560Z,0
2022-08-22T00:48:30.625Z,0
2022-08-22T00:48:50.660Z,0
2022-08-22T00:49:10.745Z,0
2022-08-22T00:49:30.805Z,0
2022-08-22T00:49:50.859Z,0
2022-08-22T00:50:10.929Z,0
2022-08-22T00:50:30.981Z,0
2022-08-22T00:50:51.030Z,0
2022-08-22T00:51:11.093Z,0
2022-08-22T00:51:31.164Z,0
2022-08-22T00:51:51.196Z,0
2022-08-22T00:52:11.275Z,0
2022-08-22T00:52:31.334Z,0
2022-08-22T00:52:51.376Z,0
2022-08-22T00:53:11.437Z,0
2022-08-22T00:53:31.520Z,0
2022-08-22T00:53:51.578Z,0
2022-08-22T00:54:17.496Z,0
2022-08-22T00:54:31.667Z,0
2022-08-22T00:54:51.737Z,0
2022-08-22T00:55:11.816Z,0
2022-08-22T00:55:33.902Z,0
2022-08-22T00:55:51.923Z,0
2022-08-22T00:56:12.000Z,0
2022-08-22T00:56:32.065Z,0
2022-08-22T00:56:52.119Z,0
2022-08-22T00:57:12.162Z,0
2022-08-22T00:57:32.224Z,0
2022-08-22T00:57:52.341Z,0
2022-08-22T00:58:12.353Z,0
2022-08-22T00:58:32.400Z,0
2022-08-22T00:58:52.471Z,0
2022-08-22T00:59:23.300Z,0
2022-08-22T00:59:32.562Z,0
2022-08-22T00:59:52.652Z,0
2022-08-22T01:00:12.713Z,0
2022-08-22T01:00:35.129Z,0
2022-08-22T01:00:52.909Z,0
2022-08-22T01:01:12.931Z,0
2022-08-22T01:01:33.089Z,0
2022-08-22T01:01:53.007Z,0
2022-08-22T01:02:13.070Z,0
2022-08-22T01:02:33.121Z,0
2022-08-22T01:02:53.179Z,0
2022-08-22T01:03:13.215Z,0
2022-08-22T01:03:33.270Z,0
2022-08-22T01:03:53.348Z,0
2022-08-22T01:04:13.371Z,0
2022-08-22T01:04:33.444Z,0
2022-08-22T01:04:53.530Z,0
2022-08-22T01:05:13.608Z,0
2022-08-22T01:05:33.671Z,0
2022-08-22T01:05:53.769Z,0
2022-08-22T01:06:13.811Z,0
2022-08-22T01:06:33.863Z,0
2022-08-22T01:06:53.915Z,0
2022-08-22T01:07:13.975Z,0
2022-08-22T01:07:38.217Z,0
2022-08-22T01:07:54.044Z,0
2022-08-22T01:08:14.082Z,0
2022-08-22T01:08:34.171Z,0
2022-08-22T01:08:54.268Z,0
2022-08-22T01:09:14.297Z,0
2022-08-22T01:09:34.365Z,0
2022-08-22T01:09:54.464Z,0
2022-08-22T01:10:14.528Z,0
2022-08-22T01:10:34.576Z,0
2022-08-22T01:10:54.647Z,0
2022-08-22T01:11:14.698Z,0
2022-08-22T01:11:34.762Z,0
2022-08-22T01:11:54.805Z,0
2022-08-22T01:12:14.873Z,0
2022-08-22T01:12:34.937Z,0
2022-08-22T01:12:54.998Z,0
2022-08-22T01:13:15.062Z,0
2022-08-22T01:13:35.114Z,0
2022-08-22T01:13:55.166Z,0
2022-08-22T01:14:15.227Z,0
2022-08-22T01:14:35.495Z,0
2022-08-22T01:14:55.353Z,0
2022-08-22T01:15:15.402Z,0
2022-08-22T01:15:35.468Z,0
2022-08-22T01:15:55.542Z,0
2022-08-22T01:16:15.604Z,0
2022-08-22T01:16:35.644Z,0
2022-08-22T01:16:55.669Z,0
2022-08-22T01:17:15.762Z,0
2022-08-22T01:17:35.822Z,0
2022-08-22T01:17:55.908Z,0
2022-08-22T01:18:15.952Z,0
2022-08-22T01:18:36.013Z,0
2022-08-22T01:18:56.100Z,0
2022-08-22T01:19:16.128Z,0
2022-08-22T01:19:36.173Z,0
2022-08-22T01:19:56.217Z,0
2022-08-22T01:20:16.261Z,0
2022-08-22T01:20:36.335Z,0
2022-08-22T01:20:56.386Z,0
2022-08-22T01:21:16.443Z,0
2022-08-22T01:21:36.532Z,0
2022-08-22T01:21:56.607Z,0
2022-08-22T01:22:16.667Z,0
2022-08-22T01:22:36.706Z,0
2022-08-22T01:22:56.778Z,0
2022-08-22T01:23:16.839Z,0
2022-08-22T01:23:36.875Z,0
2022-08-22T01:23:56.926Z,0
2022-08-22T01:24:17.018Z,0
2022-08-22T01:24:37.083Z,0
2022-08-22T01:24:57.133Z,0
2022-08-22T01:25:17.218Z,0
2022-08-22T01:25:37.253Z,0
2022-08-22T01:25:57.294Z,0
2022-08-22T01:26:17.347Z,0
2022-08-22T01:26:37.407Z,0
2022-08-22T01:26:57.492Z,0
2022-08-22T01:27:17.554Z,0
2022-08-22T01:27:37.620Z,0
2022-08-22T01:27:57.929Z,0
2022-08-22T01:28:17.733Z,0
2022-08-22T01:28:37.786Z,0
2022-08-22T01:28:57.829Z,0
2022-08-22T01:29:17.885Z,0
2022-08-22T01:29:38.019Z,0
2022-08-22T01:29:58.025Z,0
2022-08-22T01:30:18.080Z,0
2022-08-22T01:30:38.153Z,0
2022-08-22T01:30:58.213Z,0
2022-08-22T01:31:18.255Z,0
2022-08-22T01:31:38.333Z,0
2022-08-22T01:31:58.353Z,0
2022-08-22T01:32:18.405Z,0
2022-08-22T01:32:38.466Z,0
2022-08-22T01:32:58.491Z,0
2022-08-22T01:33:18.559Z,0
2022-08-22T01:33:38.644Z,0
2022-08-22T01:33:58.716Z,0
2022-08-22T01:34:18.769Z,0
2022-08-22T01:34:38.850Z,0
2022-08-22T01:34:58.914Z,0
2022-08-22T01:35:18.952Z,0
2022-08-22T01:35:39.028Z,0
2022-08-22T01:35:59.066Z,0
2022-08-22T01:36:19.125Z,0
2022-08-22T01:36:39.164Z,0
2022-08-22T01:36:59.248Z,0
2022-08-22T01:37:19.302Z,0
2022-08-22T01:37:43.664Z,0
2022-08-22T01:37:59.708Z,0
2022-08-22T01:38:19.495Z,0
2022-08-22T01:38:39.549Z,0
2022-08-22T01:38:59.625Z,0
2022-08-22T01:39:19.687Z,0
2022-08-22T01:39:39.820Z,0
2022-08-22T01:39:59.886Z,0
2022-08-22T01:40:19.935Z,0
2022-08-22T01:40:53.995Z,0
2022-08-22T01:40:59.998Z,0
2022-08-22T01:41:20.057Z,0
2022-08-22T01:41:40.075Z,0
2022-08-22T01:42:00.145Z,0
2022-08-22T01:42:20.192Z,0
2022-08-22T01:42:40.279Z,0
2022-08-22T01:43:00.328Z,0
2022-08-22T01:43:20.377Z,0
2022-08-22T01:43:43.877Z,0
2022-08-22T01:44:01.245Z,0
2022-08-22T01:44:20.556Z,0
2022-08-22T01:44:40.644Z,0
2022-08-22T01:45:00.683Z,0
2022-08-22T01:45:20.757Z,0
2022-08-22T01:45:40.817Z,0
2022-08-22T01:46:00.872Z,0
2022-08-22T01:46:21.574Z,0
2022-08-22T01:46:40.990Z,0
2022-08-22T01:47:01.070Z,0
2022-08-22T01:47:21.127Z,0
2022-08-22T01:47:41.204Z,0
2022-08-22T01:48:01.243Z,0
2022-08-22T01:48:21.283Z,0
2022-08-22T01:48:41.351Z,0
2022-08-22T01:49:01.416Z,0
2022-08-22T01:49:21.509Z,0
2022-08-22T01:49:41.512Z,0
2022-08-22T01:50:01.597Z,0
2022-08-22T01:50:21.701Z,0
2022-08-22T01:50:41.780Z,0
2022-08-22T01:51:01.880Z,0
2022-08-22T01:51:21.903Z,0
2022-08-22T01:51:41.962Z,0
2022-08-22T01:52:02.020Z,0
2022-08-22T01:52:22.117Z,0
2022-08-22T01:52:42.177Z,0
2022-08-22T01:53:02.244Z,0
2022-08-22T01:53:22.318Z,0
2022-08-22T01:53:42.355Z,0
2022-08-22T01:54:02.415Z,0
2022-08-22T01:54:22.448Z,0
2022-08-22T01:54:42.535Z,0
2022-08-22T01:55:02.589Z,0
2022-08-22T01:55:22.645Z,0
2022-08-22T01:55:42.706Z,0
2022-08-22T01:56:02.777Z,0
2022-08-22T01:56:22.835Z,0
2022-08-22T01:56:42.909Z,0
2022-08-22T01:57:02.941Z,0
2022-08-22T01:57:23.014Z,0
2022-08-22T01:57:43.072Z,0
2022-08-22T01:58:03.129Z,0
2022-08-22T01:58:23.187Z,0
2022-08-22T01:58:43.253Z,0
2022-08-22T01:59:03.322Z,0
2022-08-22T01:59:27.605Z,0
2022-08-22T01:59:43.415Z,0
2022-08-22T02:00:03.462Z,0
2022-08-22T02:00:35.215Z,0
2022-08-22T02:00:43.641Z,0
2022-08-22T02:01:03.726Z,0
2022-08-22T02:01:23.753Z,0
2022-08-22T02:01:43.756Z,0
2022-08-22T02:02:03.841Z,0
2022-08-22T02:02:23.918Z,0
2022-08-22T02:02:43.968Z,0
2022-08-22T02:03:03.988Z,0
2022-08-22T02:03:24.058Z,0
2022-08-22T02:03:44.141Z,0
2022-08-22T02:04:04.200Z,0
2022-08-22T02:04:24.242Z,0
2022-08-22T02:04:44.276Z,0
2022-08-22T02:05:04.356Z,0
2022-08-22T02:05:24.408Z,0
2022-08-22T02:05:44.481Z,0
2022-08-22T02:06:04.561Z,0
2022-08-22T02:06:24.623Z,0
2022-08-22T02:06:44.672Z,0
2022-08-22T02:07:04.728Z,0
2022-08-22T02:07:31.584Z,0
2022-08-22T02:07:44.842Z,0
2022-08-22T02:08:04.885Z,0
2022-08-22T02:08:24.936Z,0
2022-08-22T02:08:44.977Z,0
2022-08-22T02:09:05.079Z,0
2022-08-22T02:09:25.155Z,0
2022-08-22T02:09:45.232Z,0
2022-08-22T02:10:05.240Z,0
2022-08-22T02:10:25.331Z,0
2022-08-22T02:10:45.393Z,0
2022-08-22T02:11:05.455Z,0
2022-08-22T02:11:25.502Z,0
2022-08-22T02:11:45.572Z,0
2022-08-22T02:12:05.644Z,0
2022-08-22T02:12:25.697Z,0
2022-08-22T02:12:45.747Z,0
2022-08-22T02:13:05.770Z,0
2022-08-22T02:13:25.841Z,0
2022-08-22T02:13:45.920Z,0
2022-08-22T02:14:05.961Z,0
2022-08-22T02:14:26.021Z,0
2022-08-22T02:14:46.070Z,0
2022-08-22T02:15:06.167Z,0
2022-08-22T02:15:26.221Z,0
2022-08-22T02:15:46.299Z,0
2022-08-22T02:16:06.365Z,0
2022-08-22T02:16:26.427Z,0
2022-08-22T02:16:46.486Z,0
2022-08-22T02:17:06.546Z,0
2022-08-22T02:17:26.595Z,0
2022-08-22T02:17:46.672Z,0
2022-08-22T02:18:06.713Z,0
2022-08-22T02:18:26.782Z,0
2022-08-22T02:18:46.838Z,0
2022-08-22T02:19:06.901Z,0
2022-08-22T02:19:26.912Z,0
2022-08-22T02:19:46.981Z,0
2022-08-22T02:20:07.071Z,0
2022-08-22T02:20:27.115Z,0
2022-08-22T02:20:47.174Z,0
2022-08-22T02:21:07.260Z,0
2022-08-22T02:21:27.325Z,0
2022-08-22T02:21:47.387Z,0
2022-08-22T02:22:07.426Z,0
2022-08-22T02:22:27.461Z,0
2022-08-22T02:22:47.528Z,0
2022-08-22T02:23:07.584Z,0
2022-08-22T02:23:27.636Z,0
2022-08-22T02:23:47.729Z,0
2022-08-22T02:24:07.790Z,0
2022-08-22T02:24:27.856Z,0
2022-08-22T02:24:47.907Z,0
2022-08-22T02:25:09.163Z,0
2022-08-22T02:25:28.035Z,0
2022-08-22T02:25:48.097Z,0
2022-08-22T02:26:08.148Z,0
2022-08-22T02:26:28.179Z,0
2022-08-22T02:26:48.248Z,0
2022-08-22T02:27:08.283Z,0
2022-08-22T02:27:31.450Z,0
2022-08-22T02:27:48.387Z,0
2022-08-22T02:28:08.451Z,0
2022-08-22T02:28:28.523Z,0
2022-08-22T02:28:56.540Z,0
2022-08-22T02:29:08.662Z,0
2022-08-22T02:29:28.729Z,0
2022-08-22T02:29:48.810Z,0
2022-08-22T02:30:08.874Z,0
2022-08-22T02:30:28.924Z,0
2022-08-22T02:30:48.993Z,0
2022-08-22T02:31:09.033Z,0
2022-08-22T02:31:29.069Z,0
2022-08-22T02:31:49.134Z,0
2022-08-22T02:32:09.194Z,0
2022-08-22T02:32:29.278Z,0
2022-08-22T02:32:49.348Z,0
2022-08-22T02:33:09.395Z,0
2022-08-22T02:33:29.454Z,0
2022-08-22T02:33:49.509Z,0
2022-08-22T02:34:09.570Z,0
2022-08-22T02:34:29.638Z,0
2022-08-22T02:34:49.700Z,0
2022-08-22T02:35:09.748Z,0
2022-08-22T02:35:29.810Z,0
2022-08-22T02:35:49.880Z,0
2022-08-22T02:36:09.933Z,0
2022-08-22T02:36:29.984Z,0
2022-08-22T02:36:50.057Z,0
2022-08-22T02:37:10.100Z,0
2022-08-22T02:37:30.172Z,0
2022-08-22T02:37:50.255Z,0
2022-08-22T02:38:10.293Z,0
2022-08-22T02:38:30.346Z,0
2022-08-22T02:38:50.400Z,0
2022-08-22T02:39:10.462Z,0
2022-08-22T02:39:30.527Z,0
2022-08-22T02:39:50.681Z,0
2022-08-22T02:40:10.703Z,0
2022-08-22T02:40:30.706Z,0
2022-08-22T02:40:50.739Z,0
2022-08-22T02:41:10.820Z,0
2022-08-22T02:41:31.065Z,0
2022-08-22T02:41:50.964Z,0
2022-08-22T02:42:10.995Z,0
2022-08-22T02:42:31.046Z,0
2022-08-22T02:42:51.124Z,0
2022-08-22T02:43:11.193Z,0
2022-08-22T02:43:31.247Z,0
2022-08-22T02:43:51.302Z,0
2022-08-22T02:44:11.367Z,0
2022-08-22T02:44:31.434Z,0
2022-08-22T02:44:51.479Z,0
2022-08-22T02:45:11.544Z,0
2022-08-22T02:45:31.563Z,0
2022-08-22T02:45:51.656Z,0
2022-08-22T02:46:11.720Z,0
2022-08-22T02:46:31.774Z,0
2022-08-22T02:46:51.833Z,0
2022-08-22T02:47:11.892Z,0
2022-08-22T02:47:31.952Z,0
2022-08-22T02:47:52.021Z,0
2022-08-22T02:48:12.043Z,0
2022-08-22T02:48:32.130Z,0
2022-08-22T02:48:52.173Z,0
2022-08-22T02:49:12.203Z,0
2022-08-22T02:49:32.225Z,0
2022-08-22T02:49:52.301Z,0
2022-08-22T02:50:13.085Z,0
2022-08-22T02:50:32.445Z,0
2022-08-22T02:50:52.524Z,0
2022-08-22T02:51:12.595Z,0
2022-08-22T02:51:32.659Z,0
2022-08-22T02:51:52.711Z,0
2022-08-22T02:52:12.755Z,0
2022-08-22T02:52:32.789Z,0
2022-08-22T02:52:52.851Z,0
2022-08-22T02:53:12.889Z,0
2022-08-22T02:53:32.974Z,0
2022-08-22T02:53:53.055Z,0
2022-08-22T02:54:13.081Z,0
2022-08-22T02:54:33.158Z,0
2022-08-22T02:54:53.235Z,0
2022-08-22T02:55:13.290Z,0
2022-08-22T02:55:33.373Z,0
2022-08-22T02:55:53.396Z,0
2022-08-22T02:56:13.460Z,0
2022-08-22T02:56:33.509Z,0
2022-08-22T02:56:53.604Z,0
2022-08-22T02:57:14.470Z,0
2022-08-22T02:57:36.162Z,0
2022-08-22T02:57:53.792Z,0
2022-08-22T02:58:13.850Z,0
2022-08-22T02:58:33.910Z,0
2022-08-22T02:58:53.942Z,0
2022-08-22T02:59:14.003Z,0
2022-08-22T02:59:34.063Z,0
2022-08-22T02:59:54.122Z,0
2022-08-22T03:00:31.369Z,0
2022-08-22T03:00:34.264Z,0
2022-08-22T03:00:54.323Z,0
2022-08-22T03:01:14.370Z,0
2022-08-22T03:01:34.410Z,0
2022-08-22T03:01:54.464Z,0
2022-08-22T03:02:14.512Z,0
2022-08-22T03:02:34.584Z,0
2022-08-22T03:02:54.626Z,0
2022-08-22T03:03:14.705Z,0
2022-08-22T03:03:34.760Z,0
2022-08-22T03:03:54.827Z,0
2022-08-22T03:04:14.914Z,0
2022-08-22T03:04:34.986Z,0
2022-08-22T03:04:55.021Z,0
2022-08-22T03:05:15.098Z,0
2022-08-22T03:05:35.171Z,0
2022-08-22T03:05:59.149Z,0
2022-08-22T03:06:15.284Z,0
2022-08-22T03:06:35.344Z,0
2022-08-22T03:06:55.394Z,0
2022-08-22T03:07:15.461Z,0
2022-08-22T03:07:35.527Z,0
2022-08-22T03:07:55.626Z,0
2022-08-22T03:08:15.655Z,0
2022-08-22T03:08:35.708Z,0
2022-08-22T03:08:55.755Z,0
2022-08-22T03:09:15.819Z,0
2022-08-22T03:09:35.852Z,0
2022-08-22T03:09:55.912Z,0
2022-08-22T03:10:15.966Z,0
2022-08-22T03:10:36.042Z,0
2022-08-22T03:10:56.091Z,0
2022-08-22T03:11:16.178Z,0
2022-08-22T03:11:36.242Z,0
2022-08-22T03:11:56.313Z,0
2022-08-22T03:12:16.373Z,0
2022-08-22T03:12:36.413Z,0
2022-08-22T03:12:57.625Z,0
2022-08-22T03:13:16.501Z,0
2022-08-22T03:13:36.576Z,0
2022-08-22T03:13:56.653Z,0
2022-08-22T03:14:16.714Z,0
2022-08-22T03:14:36.771Z,0
2022-08-22T03:14:56.827Z,0
2022-08-22T03:15:16.892Z,0
2022-08-22T03:15:36.953Z,0
2022-08-22T03:15:57.010Z,0
2022-08-22T03:16:17.049Z,0
2022-08-22T03:16:37.138Z,0
2022-08-22T03:16:57.186Z,0
2022-08-22T03:17:17.264Z,0
2022-08-22T03:17:37.320Z,0
2022-08-22T03:17:57.548Z,0
2022-08-22T03:18:17.435Z,0
2022-08-22T03:18:37.507Z,0
2022-08-22T03:18:57.570Z,0
2022-08-22T03:19:18.785Z,0
2022-08-22T03:19:37.666Z,0
2022-08-22T03:19:57.735Z,0
2022-08-22T03:20:17.794Z,0
2022-08-22T03:20:37.855Z,0
2022-08-22T03:20:57.911Z,0
2022-08-22T03:21:17.966Z,0
2022-08-22T03:21:38.009Z,0
2022-08-22T03:21:58.080Z,0
2022-08-22T03:22:18.149Z,0
2022-08-22T03:22:38.206Z,0
2022-08-22T03:22:58.259Z,0
2022-08-22T03:23:18.336Z,0
2022-08-22T03:23:38.383Z,0
2022-08-22T03:23:58.441Z,0
2022-08-22T03:24:18.513Z,0
2022-08-22T03:24:38.560Z,0
2022-08-22T03:24:58.622Z,0
2022-08-22T03:25:18.678Z,0
2022-08-22T03:25:38.713Z,0
2022-08-22T03:25:58.805Z,0
2022-08-22T03:26:18.861Z,0
2022-08-22T03:26:38.918Z,0
2022-08-22T03:26:58.999Z,0
2022-08-22T03:27:32.301Z,0
2022-08-22T03:27:39.102Z,0
2022-08-22T03:27:59.141Z,0
2022-08-22T03:28:19.214Z,0
2022-08-22T03:28:39.256Z,0
2022-08-22T03:29:00.392Z,0
2022-08-22T03:29:19.359Z,0
2022-08-22T03:29:39.429Z,0
2022-08-22T03:29:59.517Z,0
2022-08-22T03:30:19.537Z,0
2022-08-22T03:30:39.606Z,0
2022-08-22T03:30:59.686Z,0
2022-08-22T03:31:19.763Z,0
2022-08-22T03:31:39.786Z,0
2022-08-22T03:31:59.862Z,0
2022-08-22T03:32:19.902Z,0
2022-08-22T03:32:39.959Z,0
2022-08-22T03:33:00.051Z,0
2022-08-22T03:33:20.115Z,0
2022-08-22T03:33:40.182Z,1
2022-08-22T03:34:00.234Z,1
2022-08-22T03:34:20.294Z,1
2022-08-22T03:34:40.346Z,1
2022-08-22T03:35:00.407Z,1
2022-08-22T03:35:20.481Z,1
2022-08-22T03:35:40.495Z,1
2022-08-22T03:36:00.587Z,1
2022-08-22T03:36:20.649Z,1
2022-08-22T03:36:40.710Z,1
2022-08-22T03:37:00.730Z,0
2022-08-22T03:37:20.809Z,0
2022-08-22T03:37:40.839Z,1
2022-08-22T03:38:00.900Z,1
2022-08-22T03:38:20.949Z,1
2022-08-22T03:38:41.015Z,1
2022-08-22T03:39:01.052Z,1
2022-08-22T03:39:21.113Z,1
2022-08-22T03:39:41.277Z,2
2022-08-22T03:40:01.301Z,2
2022-08-22T03:40:21.436Z,2
2022-08-22T03:40:41.383Z,2
2022-08-22T03:41:01.438Z,1
2022-08-22T03:41:21.510Z,2
2022-08-22T03:41:41.581Z,2
2022-08-22T03:42:01.655Z,2
2022-08-22T03:42:21.718Z,2
2022-08-22T03:42:41.757Z,3
2022-08-22T03:43:01.837Z,2
2022-08-22T03:43:21.893Z,2
2022-08-22T03:43:41.942Z,2
2022-08-22T03:44:01.995Z,3
2022-08-22T03:44:22.070Z,3
2022-08-22T03:44:42.126Z,3
2022-08-22T03:45:02.181Z,3
2022-08-22T03:45:22.218Z,3
2022-08-22T03:45:42.290Z,4
2022-08-22T03:46:02.361Z,3
2022-08-22T03:46:22.433Z,4
2022-08-22T03:46:42.503Z,4
2022-08-22T03:47:02.538Z,4
2022-08-22T03:47:22.616Z,5
2022-08-22T03:47:42.672Z,5
2022-08-22T03:48:02.723Z,5
2022-08-22T03:48:22.774Z,6
2022-08-22T03:48:42.842Z,5
2022-08-22T03:49:02.895Z,6
2022-08-22T03:49:22.951Z,6
2022-08-22T03:49:43.015Z,7
2022-08-22T03:50:03.139Z,7
2022-08-22T03:50:23.141Z,8
2022-08-22T03:50:43.199Z,8
2022-08-22T03:51:03.233Z,8
2022-08-22T03:51:23.282Z,9
2022-08-22T03:51:43.366Z,10
2022-08-22T03:52:03.458Z,10
2022-08-22T03:52:23.521Z,11
2022-08-22T03:52:43.568Z,11
2022-08-22T03:53:03.629Z,11
2022-08-22T03:53:23.683Z,12
2022-08-22T03:53:43.712Z,13
2022-08-22T03:54:03.798Z,14
2022-08-22T03:54:23.837Z,15
2022-08-22T03:54:43.898Z,15
2022-08-22T03:55:03.963Z,17
2022-08-22T03:55:24.037Z,17
2022-08-22T03:55:44.109Z,18
2022-08-22T03:56:04.171Z,20
2022-08-22T03:56:24.247Z,20
2022-08-22T03:56:44.291Z,21
2022-08-22T03:57:04.379Z,23
2022-08-22T03:57:24.402Z,24
2022-08-22T03:57:44.465Z,26
2022-08-22T03:58:04.530Z,27
2022-08-22T03:58:27.672Z,28
2022-08-22T03:58:44.662Z,30
2022-08-22T03:59:09.901Z,32
2022-08-22T03:59:24.763Z,33
2022-08-22T03:59:44.819Z,34
2022-08-22T04:00:04.863Z,37
2022-08-22T04:00:24.953Z,39
2022-08-22T04:00:45.046Z,41
2022-08-22T04:01:05.120Z,44
2022-08-22T04:01:25.131Z,46
2022-08-22T04:01:45.185Z,48
2022-08-22T04:02:29.458Z,51
2022-08-22T04:02:43.541Z,53
2022-08-22T04:02:45.372Z,55
2022-08-22T04:03:05.431Z,59
2022-08-22T04:03:25.465Z,62
2022-08-22T04:03:45.540Z,65
2022-08-22T04:04:05.588Z,68
2022-08-22T04:04:25.650Z,70
2022-08-22T04:04:45.693Z,74
2022-08-22T04:05:05.779Z,77
2022-08-22T04:05:25.845Z,79
2022-08-22T04:05:45.903Z,84
2022-08-22T04:06:07.836Z,87
2022-08-22T04:06:26.027Z,91
2022-08-22T04:06:48.444Z,95
2022-08-22T04:07:06.127Z,99
2022-08-22T04:07:31.474Z,103
2022-08-22T04:07:46.262Z,109
2022-08-22T04:08:06.312Z,113
2022-08-22T04:08:26.635Z,117
2022-08-22T04:08:46.412Z,124
2022-08-22T04:09:06.481Z,129
2022-08-22T04:09:26.533Z,133
2022-08-22T04:09:47.222Z,140
2022-08-22T04:10:06.654Z,146
2022-08-22T04:10:26.731Z,150
2022-08-22T04:10:46.793Z,158
2022-08-22T04:11:06.857Z,163
2022-08-22T04:11:26.881Z,170
2022-08-22T04:11:46.970Z,176
2022-08-22T04:12:07.025Z,184
2022-08-22T04:12:27.158Z,190
2022-08-22T04:12:47.136Z,197
2022-08-22T04:13:07.199Z,205
2022-08-22T04:13:27.272Z,213
2022-08-22T04:13:47.326Z,220
2022-08-22T04:14:07.391Z,230
2022-08-22T04:14:27.455Z,238
2022-08-22T04:14:47.512Z,246
2022-08-22T04:15:07.571Z,255
2022-08-22T04:15:27.624Z,266
2022-08-22T04:15:47.682Z,274
2022-08-22T04:16:07.729Z,282
2022-08-22T04:16:27.773Z,294
2022-08-22T04:16:47.829Z,302
2022-08-22T04:17:07.917Z,314
2022-08-22T04:17:27.983Z,323
2022-08-22T04:17:48.048Z,335
2022-08-22T04:18:08.070Z,345
2022-08-22T04:18:28.147Z,355
2022-08-22T04:18:48.193Z,368
2022-08-22T04:19:08.255Z,379
2022-08-22T04:19:28.334Z,389
2022-08-22T04:19:48.409Z,403
2022-08-22T04:20:08.457Z,415
2022-08-22T04:20:28.485Z,431
2022-08-22T04:20:48.546Z,441
2022-08-22T04:21:08.628Z,452
2022-08-22T04:21:28.654Z,468
2022-08-22T04:21:48.697Z,480
2022-08-22T04:22:08.753Z,492
2022-08-22T04:22:28.837Z,509
2022-08-22T04:22:48.867Z,523
2022-08-22T04:23:08.946Z,536
2022-08-22T04:23:29.018Z,551
2022-08-22T04:23:49.106Z,569
2022-08-22T04:24:09.175Z,582
2022-08-22T04:24:29.226Z,597
2022-08-22T04:24:52.446Z,615
2022-08-22T04:25:09.340Z,630
2022-08-22T04:25:29.404Z,647
2022-08-22T04:25:49.487Z,663
2022-08-22T04:26:12.047Z,678
2022-08-22T04:26:29.585Z,698
2022-08-22T04:26:49.641Z,713
2022-08-22T04:27:09.719Z,729
2022-08-22T04:27:29.774Z,750
2022-08-22T04:27:49.844Z,766
2022-08-22T04:28:09.903Z,783
2022-08-22T04:28:29.950Z,805
2022-08-22T04:28:50.002Z,822
2022-08-22T04:29:10.037Z,838
2022-08-22T04:29:30.090Z,862
2022-08-22T04:29:50.163Z,880
2022-08-22T04:30:10.254Z,905
2022-08-22T04:30:30.300Z,926
2022-08-22T04:30:50.372Z,947
2022-08-22T04:31:10.410Z,969
2022-08-22T04:31:30.477Z,997
2022-08-22T04:31:50.546Z,1019
2022-08-22T04:32:14.402Z,1040
2022-08-22T04:32:30.666Z,1070
2022-08-22T04:32:50.728Z,1091
2022-08-22T04:33:10.770Z,1113
2022-08-22T04:33:30.843Z,1140
2022-08-22T04:33:50.902Z,1162
2022-08-22T04:34:10.960Z,1184
2022-08-22T04:34:31.018Z,1214
2022-08-22T04:34:51.081Z,1237
2022-08-22T04:35:11.144Z,1260
2022-08-22T04:35:31.198Z,1284
2022-08-22T04:35:51.279Z,1314
2022-08-22T04:36:11.338Z,1337
2022-08-22T04:36:31.378Z,1359
2022-08-22T04:36:51.425Z,1388
2022-08-22T04:37:11.501Z,1410
2022-08-22T04:37:31.563Z,1432
2022-08-22T04:37:51.642Z,1460
2022-08-22T04:38:11.676Z,1482
2022-08-22T04:38:31.704Z,1504
2022-08-22T04:38:51.783Z,1532
2022-08-22T04:39:11.856Z,1554
2022-08-22T04:39:31.897Z,1574
2022-08-22T04:39:52.072Z,1601
2022-08-22T04:40:12.091Z,1621
2022-08-22T04:40:32.086Z,1641
2022-08-22T04:40:52.155Z,1668
2022-08-22T04:41:12.196Z,1688
2022-08-22T04:41:32.297Z,1707
2022-08-22T04:41:52.353Z,1735
2022-08-22T04:42:31.695Z,1755
2022-08-22T04:42:33.435Z,1774
2022-08-22T04:42:52.534Z,1801
2022-08-22T04:43:12.580Z,1819
2022-08-22T04:43:32.644Z,1840
2022-08-22T04:43:52.677Z,1866
2022-08-22T04:44:13.456Z,1885
2022-08-22T04:44:32.815Z,1905
2022-08-22T04:44:52.879Z,1932